Time;durP1;ratioP1;P1;durP2;ratioP2;P2;SDS_P1;SDS_P2;PMS_P1;PMS_P2;Temp;Humidity;BMP_temperature;BMP_pressure;BME280_temperature;BME280_humidity;BME280_pressure;Samples;Min_cycle;Max_cycle;Signal;HPM_P1;HPM_P2
2022/04/26 03:36:11;;;;;;;;;29.33;26.00;;;;;-147.59;100.00;57188.72;4974998;28;45469;-78
2022/04/26 03:38:38;;;;;;;;;31.67;29.67;;;;;-147.59;100.00;57188.72;4974994;28;45421;-77
2022/04/26 03:41:03;;;;;;;;;29.00;25.67;;;;;-147.59;100.00;57188.72;4990217;28;45307;-77
2022/04/26 03:43:29;;;;;;;;;27.67;26.33;;;;;-147.59;100.00;57188.72;4994332;28;45814;-77
2022/04/26 03:45:55;;;;;;;;;33.00;30.00;;;;;-147.59;100.00;57188.72;4998061;28;45398;-77
2022/04/26 03:48:21;;;;;;;;;33.33;29.67;;;;;-147.59;100.00;57188.72;4997827;28;45424;-77
2022/04/26 03:50:46;;;;;;;;;28.33;27.33;;;;;-147.59;100.00;57188.72;4998002;28;45393;-77
2022/04/26 03:53:11;;;;;;;;;30.00;28.67;;;;;-147.59;100.00;57188.72;4997847;28;46349;-77
2022/04/26 03:55:37;;;;;;;;;33.00;30.67;;;;;-147.59;100.00;57188.72;4997493;28;45415;-77
2022/04/26 03:58:02;;;;;;;;;27.33;23.00;;;;;-147.59;100.00;57188.72;4997736;28;45290;-77
2022/04/26 04:00:27;;;;;;;;;33.00;27.00;;;;;-147.59;100.00;57188.72;4997625;28;45528;-77
2022/04/26 04:02:53;;;;;;;;;29.00;27.00;;;;;-147.59;100.00;57188.72;4997639;28;45297;-77
2022/04/26 04:05:18;;;;;;;;;27.00;25.67;;;;;-147.59;100.00;57188.72;4997371;28;45318;-77
2022/04/26 04:07:43;;;;;;;;;35.67;32.00;;;;;-147.59;100.00;57188.72;4997628;28;45442;-77
2022/04/26 04:10:09;;;;;;;;;32.33;28.00;;;;;-147.59;100.00;57188.72;4997606;28;45349;-78
2022/04/26 04:12:35;;;;;;;;;37.67;32.00;;;;;-147.59;100.00;57188.72;4978947;28;46273;-77
2022/04/26 04:15:00;;;;;;;;;33.67;32.33;;;;;-147.59;100.00;57188.72;4997353;28;45431;-78
2022/04/26 04:17:26;;;;;;;;;30.00;29.67;;;;;-147.59;100.00;57188.72;4979675;28;45593;-78
2022/04/26 04:19:51;;;;;;;;;33.67;30.33;;;;;-147.59;100.00;57188.72;4997515;28;45401;-77
2022/04/26 04:22:16;;;;;;;;;38.00;33.67;;;;;-147.59;100.00;57188.72;4997108;28;45601;-77
2022/04/26 04:24:42;;;;;;;;;37.00;32.33;;;;;-147.59;100.00;57188.72;4996938;28;45419;-78
2022/04/26 04:27:09;;;;;;;;;32.33;29.33;;;;;-147.59;100.00;57188.72;5001994;28;45395;-77
2022/04/26 04:29:34;;;;;;;;;34.00;31.33;;;;;-147.59;100.00;57188.72;5016929;28;45594;-77
2022/04/26 04:32:01;;;;;;;;;40.00;34.00;;;;;-147.59;100.00;57188.72;5015361;28;45996;-78
2022/04/26 04:34:26;;;;;;;;;33.67;33.00;;;;;-147.59;100.00;57188.72;5016870;28;45362;-78
2022/04/26 04:36:51;;;;;;;;;38.33;35.33;;;;;-147.59;100.00;57188.72;5016957;28;45350;-78
2022/04/26 04:39:20;;;;;;;;;37.33;32.67;;;;;-147.59;100.00;57188.72;5016877;28;45403;-77
2022/04/26 04:41:49;;;;;;;;;36.33;32.00;;;;;-147.59;100.00;57188.72;5017096;28;46301;-78
2022/04/26 04:44:15;;;;;;;;;33.00;30.00;;;;;-147.59;100.00;57188.72;5015378;28;45381;-78
2022/04/26 04:46:40;;;;;;;;;36.33;33.00;;;;;-147.59;100.00;57188.72;5016579;28;45348;-78
2022/04/26 04:49:05;;;;;;;;;39.67;32.67;;;;;-147.59;100.00;57188.72;5016889;28;45438;-78
2022/04/26 04:51:31;;;;;;;;;39.00;34.67;;;;;-147.59;100.00;57188.72;5016390;28;46398;-78
2022/04/26 04:53:56;;;;;;;;;34.33;30.00;;;;;-147.59;100.00;57188.72;5016616;28;45467;-78
2022/04/26 04:56:24;;;;;;;;;40.67;33.33;;;;;-147.59;100.00;57188.72;5014407;28;45653;-78
2022/04/26 04:58:50;;;;;;;;;35.33;31.00;;;;;-147.59;100.00;57188.72;5016676;28;45511;-77
2022/04/26 05:01:15;;;;;;;;;43.33;33.67;;;;;-147.59;100.00;57188.72;5016324;28;45506;-76
2022/04/26 05:03:41;;;;;;;;;37.33;33.00;;;;;-147.59;100.00;57188.72;5016150;28;45360;-77
2022/04/26 05:06:06;;;;;;;;;42.67;36.33;;;;;-147.59;100.00;57188.72;5015357;28;45342;-78
2022/04/26 05:08:32;;;;;;;;;31.33;30.00;;;;;-147.59;100.00;57188.72;5016127;28;45576;-75
2022/04/26 05:10:57;;;;;;;;;37.67;33.00;;;;;-147.59;100.00;57188.72;5014657;28;47465;-76
2022/04/26 05:13:23;;;;;;;;;37.67;33.00;;;;;-147.59;100.00;57188.72;5015926;28;45467;-76
2022/04/26 05:15:48;;;;;;;;;39.33;35.33;;;;;-147.59;100.00;57188.72;5016285;28;45488;-75
2022/04/26 05:18:13;;;;;;;;;34.00;33.00;;;;;-147.59;100.00;57188.72;5015011;28;45515;-77
2022/04/26 05:20:39;;;;;;;;;43.00;37.00;;;;;-147.59;100.00;57188.72;5015866;28;45861;-77
2022/04/26 05:25:49;;;;;;;;;38.67;34.33;;;;;-147.59;100.00;57188.72;5016809;28;45361;-77
2022/04/26 05:28:14;;;;;;;;;42.00;37.33;;;;;-147.59;100.00;57188.72;5015822;28;45265;-78
2022/04/26 05:30:39;;;;;;;;;46.00;35.33;;;;;-147.59;100.00;57188.72;5015648;28;46469;-74
2022/04/26 05:33:05;;;;;;;;;41.00;35.00;;;;;-147.59;100.00;57188.72;5016096;28;45261;-77
2022/04/26 05:35:30;;;;;;;;;46.33;37.33;;;;;-147.59;100.00;57188.72;5015953;28;45259;-76
2022/04/26 05:37:56;;;;;;;;;44.67;37.33;;;;;-147.59;100.00;57188.72;5015923;28;45399;-76
2022/04/26 05:40:21;;;;;;;;;41.00;36.00;;;;;-147.59;100.00;57188.72;5015705;28;45417;-76
2022/04/26 05:42:46;;;;;;;;;42.00;36.00;;;;;-147.59;100.00;57188.72;5015711;28;45541;-74
2022/04/26 05:45:12;;;;;;;;;41.33;36.33;;;;;-147.59;100.00;57188.72;5016145;28;45434;-76
2022/04/26 05:47:44;;;;;;;;;42.33;36.33;;;;;-147.59;100.00;57188.72;5014873;28;45386;-75
2022/04/26 05:50:11;;;;;;;;;43.67;37.33;;;;;-147.59;100.00;57188.72;5015836;28;46754;-75
2022/04/26 05:52:37;;;;;;;;;39.00;33.33;;;;;-147.59;100.00;57188.72;5015207;28;45324;-74
2022/04/26 05:55:07;;;;;;;;;39.67;35.00;;;;;-147.59;100.00;57188.72;5015576;28;45488;-74
2022/04/26 05:57:38;;;;;;;;;40.33;34.67;;;;;-147.59;100.00;57188.72;5015850;28;45575;-75
2022/04/26 06:00:09;;;;;;;;;52.00;43.33;;;;;-147.59;100.00;57188.72;5014582;28;47235;-74
2022/04/26 06:02:34;;;;;;;;;49.67;41.33;;;;;-147.59;100.00;57188.72;5015724;28;45431;-74
2022/04/26 06:04:59;;;;;;;;;48.33;41.33;;;;;-147.59;100.00;57188.72;5027562;28;45917;-75
2022/04/26 06:07:25;;;;;;;;;50.00;41.00;;;;;-147.59;100.00;57188.72;5032277;28;46313;-74
2022/04/26 06:09:53;;;;;;;;;54.00;42.67;;;;;-147.59;100.00;57188.72;5025264;28;45761;-74
2022/04/26 06:12:19;;;;;;;;;44.33;39.33;;;;;-147.59;100.00;57188.72;5035818;28;45501;-74
2022/04/26 06:14:44;;;;;;;;;51.67;42.00;;;;;-147.59;100.00;57188.72;5016100;28;45483;-75
2022/04/26 06:17:10;;;;;;;;;44.33;39.33;;;;;-147.59;100.00;57188.72;5015691;28;45407;-75
2022/04/26 06:19:35;;;;;;;;;53.33;41.00;;;;;-147.59;100.00;57188.72;5015509;28;45441;-74
2022/04/26 06:22:00;;;;;;;;;49.67;40.00;;;;;-147.59;100.00;57188.72;5013873;28;45381;-74
2022/04/26 06:24:26;;;;;;;;;52.33;41.67;;;;;-147.59;100.00;57188.72;5015665;28;45360;-74
2022/04/26 06:26:51;;;;;;;;;49.33;38.33;;;;;-147.59;100.00;57188.72;5012958;28;45532;-75
2022/04/26 06:29:16;;;;;;;;;55.33;43.33;;;;;-147.59;100.00;57188.72;4990556;28;46566;-74
2022/04/26 06:31:42;;;;;;;;;55.33;45.00;;;;;-147.59;100.00;57188.72;4993042;28;45491;-75
2022/04/26 06:34:07;;;;;;;;;55.00;44.00;;;;;-147.59;100.00;57188.72;4995056;28;45309;-74
2022/04/26 06:36:32;;;;;;;;;48.67;38.67;;;;;-147.59;100.00;57188.72;5008676;28;45441;-75
2022/04/26 06:38:58;;;;;;;;;60.00;44.67;;;;;-147.59;100.00;57188.72;5007260;28;45388;-74
2022/04/26 06:41:23;;;;;;;;;53.00;42.00;;;;;-147.59;100.00;57188.72;4999064;28;48385;-74
2022/04/26 06:43:48;;;;;;;;;53.67;42.00;;;;;-147.59;100.00;57188.72;5007287;28;45532;-75
2022/04/26 06:46:14;;;;;;;;;55.67;43.67;;;;;-147.59;100.00;57188.72;5005178;28;45659;-75
2022/04/26 06:48:41;;;;;;;;;54.00;43.33;;;;;-147.59;100.00;57188.72;4996635;28;50731;-74
2022/04/26 06:51:06;;;;;;;;;50.00;41.00;;;;;-147.59;100.00;57188.72;5007246;28;45422;-74
2022/04/26 06:53:31;;;;;;;;;62.67;48.67;;;;;-147.59;100.00;57188.72;4982413;28;46054;-75
2022/04/26 06:55:57;;;;;;;;;59.00;47.33;;;;;-147.59;100.00;57188.72;4986079;28;45561;-75
2022/04/26 06:58:22;;;;;;;;;54.67;43.00;;;;;-147.59;100.00;57188.72;5000374;28;46649;-74
2022/04/26 07:00:49;;;;;;;;;57.33;48.33;;;;;-147.59;100.00;57188.72;5005342;28;45527;-74
2022/04/26 07:03:15;;;;;;;;;59.33;48.00;;;;;-147.59;100.00;57188.72;5005848;28;45539;-75
2022/04/26 07:05:41;;;;;;;;;57.67;48.67;;;;;-147.59;100.00;57188.72;5001244;28;45380;-74
2022/04/26 07:08:07;;;;;;;;;58.67;46.33;;;;;-147.59;100.00;57188.72;4976809;28;47724;-74
2022/04/26 07:10:32;;;;;;;;;57.33;47.33;;;;;-147.59;100.00;57188.72;4995625;28;45394;-75
2022/04/26 07:12:58;;;;;;;;;57.67;45.00;;;;;-147.59;100.00;57188.72;5000562;28;45353;-75
2022/04/26 07:15:24;;;;;;;;;58.00;45.00;;;;;-147.59;100.00;57188.72;5010356;28;45563;-74
2022/04/26 07:17:49;;;;;;;;;55.00;44.67;;;;;-147.59;100.00;57188.72;5009670;28;45472;-75
2022/04/26 07:20:15;;;;;;;;;59.67;48.00;;;;;-147.59;100.00;57188.72;5015030;28;45438;-74
2022/04/26 07:22:40;;;;;;;;;56.67;44.67;;;;;-147.59;100.00;57188.72;5006794;28;45385;-74
2022/04/26 07:25:07;;;;;;;;;52.33;43.00;;;;;-147.59;100.00;57188.72;5005857;28;45366;-75
2022/04/26 07:27:33;;;;;;;;;57.00;45.00;;;;;-147.59;100.00;57188.72;5004911;28;45505;-74
2022/04/26 07:29:59;;;;;;;;;57.67;46.67;;;;;-147.59;100.00;57188.72;4996862;28;45511;-74
2022/04/26 07:34:20;;;;;;;;;54.00;41.33;;;;;-147.59;100.00;57188.72;5000090;28;45634;-74
2022/04/26 07:35:11;;;;;;;;;60.67;46.67;;;;;-147.59;100.00;57188.72;5006554;28;45437;-74
2022/04/26 07:37:40;;;;;;;;;57.33;45.33;;;;;-147.59;100.00;57188.72;4979554;28;48083;-74
2022/04/26 07:40:07;;;;;;;;;59.33;47.33;;;;;-147.59;100.00;57188.72;5001036;28;45401;-74
2022/04/26 07:42:32;;;;;;;;;61.67;47.00;;;;;-147.59;100.00;57188.72;5001868;28;45330;-75
2022/04/26 07:44:57;;;;;;;;;59.00;47.00;;;;;-147.59;100.00;57188.72;5013440;28;45389;-75
2022/04/26 07:47:26;;;;;;;;;59.33;47.00;;;;;-147.59;100.00;57188.72;5011054;28;46496;-75
2022/04/26 07:49:52;;;;;;;;;63.00;48.33;;;;;-147.59;100.00;57188.72;5006711;28;45472;-75
2022/04/26 07:52:18;;;;;;;;;56.33;45.00;;;;;-147.59;100.00;57188.72;4997404;28;45702;-74
2022/04/26 07:54:45;;;;;;;;;50.00;41.67;;;;;-147.59;100.00;57188.72;5003242;28;45523;-75
2022/04/26 07:57:11;;;;;;;;;57.00;46.33;;;;;-147.59;100.00;57188.72;5003510;28;46299;-75
2022/04/26 07:59:36;;;;;;;;;54.33;43.33;;;;;-147.59;100.00;57188.72;4996137;28;45402;-74
2022/04/26 08:02:02;;;;;;;;;54.67;42.33;;;;;-147.59;100.00;57188.72;4991983;28;45902;-74
2022/04/26 08:04:27;;;;;;;;;56.33;43.67;;;;;-147.59;100.00;57188.72;4999369;28;45494;-74
2022/04/26 08:06:52;;;;;;;;;55.00;45.00;;;;;-147.59;100.00;57188.72;4994576;28;48047;-74
2022/04/26 08:09:18;;;;;;;;;48.33;40.00;;;;;-147.59;100.00;57188.72;4979476;28;45766;-75
2022/04/26 08:11:43;;;;;;;;;53.33;42.00;;;;;-147.59;100.00;57188.72;5004776;28;45737;-74
2022/04/26 08:14:09;;;;;;;;;53.67;42.00;;;;;-147.59;100.00;57188.72;4996334;28;45557;-74
2022/04/26 08:16:34;;;;;;;;;55.00;41.67;;;;;-147.59;100.00;57188.72;4997019;28;46469;-74
2022/04/26 08:18:59;;;;;;;;;49.67;41.33;;;;;-147.59;100.00;57188.72;4981882;28;45730;-75
2022/04/26 08:21:25;;;;;;;;;54.00;41.67;;;;;-147.59;100.00;57188.72;4996958;28;45492;-74
2022/04/26 08:29:19;;;;;;;;;50.67;41.00;;;;;-147.59;100.00;57188.72;5008880;28;45343;-75
2022/04/26 08:31:45;;;;;;;;;55.33;44.00;;;;;-147.59;100.00;57188.72;4984170;28;45629;-75
2022/04/26 08:34:11;;;;;;;;;49.33;40.67;;;;;-147.59;100.00;57188.72;5001413;28;45324;-75
2022/04/26 08:36:37;;;;;;;;;49.00;40.67;;;;;-147.59;100.00;57188.72;5001004;28;45506;-75
2022/04/26 08:39:02;;;;;;;;;49.00;41.67;;;;;-147.59;100.00;57188.72;5002280;28;45484;-75
2022/04/26 08:41:29;;;;;;;;;54.00;43.33;;;;;-147.59;100.00;57188.72;4986596;28;45556;-75
2022/04/26 08:43:54;;;;;;;;;51.00;42.00;;;;;-147.59;100.00;57188.72;4999390;28;45452;-75
2022/04/26 08:46:19;;;;;;;;;55.00;44.67;;;;;-147.59;100.00;57188.72;4995507;28;45535;-74
2022/04/26 08:51:29;;;;;;;;;57.67;44.33;;;;;-147.59;100.00;57188.72;5014836;28;45560;-74
2022/04/26 08:53:55;;;;;;;;;51.67;43.00;;;;;-147.59;100.00;57188.72;5003413;28;45494;-74
2022/04/26 08:56:20;;;;;;;;;53.33;44.00;;;;;-147.59;100.00;57188.72;5003130;28;46410;-74
2022/04/26 08:58:46;;;;;;;;;58.00;46.33;;;;;-147.59;100.00;57188.72;5005151;28;45479;-75
2022/04/26 09:01:18;;;;;;;;;55.33;45.67;;;;;-147.59;100.00;57188.72;5000012;28;45543;-75
2022/04/26 09:03:55;;;;;;;;;51.67;43.00;;;;;-147.59;100.00;57188.72;4995709;28;45494;-76
2022/04/26 09:06:36;;;;;;;;;58.33;46.67;;;;;-147.59;100.00;57188.72;4982628;28;45546;-77
2022/04/26 09:09:18;;;;;;;;;55.33;44.33;;;;;-147.59;100.00;57188.72;4969959;28;45532;-76
2022/04/26 09:11:45;;;;;;;;;56.00;44.33;;;;;-147.59;100.00;57188.72;4988447;28;45374;-75
2022/04/26 09:14:35;;;;;;;;;51.00;41.67;;;;;-147.59;100.00;57188.72;4988663;28;45703;-76
2022/04/26 09:17:11;;;;;;;;;54.00;44.33;;;;;-147.59;100.00;57188.72;4986460;28;46112;-77
2022/04/26 09:19:53;;;;;;;;;51.00;41.50;;;;;-147.59;100.00;57188.72;4987714;28;45544;-78
2022/04/26 09:22:20;;;;;;;;;53.00;42.33;;;;;-147.59;100.00;57188.72;4989129;28;45610;-74
2022/04/26 09:24:56;;;;;;;;;52.67;42.67;;;;;-147.59;100.00;57188.72;4983325;28;45517;-77
2022/04/26 09:27:23;;;;;;;;;59.00;43.33;;;;;-147.59;100.00;57188.72;4990589;28;45524;-77
2022/04/26 09:29:48;;;;;;;;;53.67;43.00;;;;;-147.59;100.00;57188.72;4972202;28;46035;-77
2022/04/26 09:32:13;;;;;;;;;54.00;42.67;;;;;-147.59;100.00;57188.72;4967415;28;45496;-77
2022/04/26 09:34:39;;;;;;;;;50.33;42.00;;;;;-147.59;100.00;57188.72;4968858;28;45489;-77
2022/04/26 09:37:05;;;;;;;;;53.00;42.00;;;;;-147.59;100.00;57188.72;4968617;28;48212;-78
2022/04/26 09:39:30;;;;;;;;;51.33;42.67;;;;;-147.59;100.00;57188.72;4987317;28;45631;-78
2022/04/26 09:41:56;;;;;;;;;54.67;42.00;;;;;-147.59;100.00;57188.72;4989882;28;45485;-76
2022/04/26 09:44:32;;;;;;;;;54.00;43.00;;;;;-147.59;100.00;57188.72;4987004;28;46973;-76
2022/04/26 09:46:57;;;;;;;;;50.00;40.67;;;;;-147.59;100.00;57188.72;4987517;28;46941;-79
2022/04/26 09:49:24;;;;;;;;;54.00;42.67;;;;;-147.59;100.00;57188.72;4987248;28;45932;-78
2022/04/26 09:51:55;;;;;;;;;46.00;38.67;;;;;-147.59;100.00;57188.72;4985240;28;45591;-79
2022/04/26 09:54:21;;;;;;;;;53.00;43.33;;;;;-147.59;100.00;57188.72;4966320;28;45613;-78
2022/04/26 09:56:47;;;;;;;;;50.67;41.33;;;;;-147.59;100.00;57188.72;4984036;28;45480;-78
2022/04/26 09:59:20;;;;;;;;;52.33;41.67;;;;;-147.59;100.00;57188.72;4985419;28;45441;-78
2022/04/26 10:01:50;;;;;;;;;46.67;39.67;;;;;-147.59;100.00;57188.72;4984323;28;46540;-75
2022/04/26 10:04:17;;;;;;;;;54.33;43.67;;;;;-147.59;100.00;57188.72;4966857;28;45504;-75
2022/04/26 10:06:45;;;;;;;;;54.00;43.00;;;;;-147.59;100.00;57188.72;4981742;28;46033;-75
2022/04/26 10:09:11;;;;;;;;;51.67;41.00;;;;;-147.59;100.00;57188.72;4985343;28;45514;-76
2022/04/26 10:11:37;;;;;;;;;51.00;43.67;;;;;-147.59;100.00;57188.72;4983602;28;45507;-76
2022/04/26 10:14:05;;;;;;;;;56.00;45.00;;;;;-147.59;100.00;57188.72;4965967;28;45686;-74
2022/04/26 10:16:32;;;;;;;;;56.00;44.00;;;;;-147.59;100.00;57188.72;4986586;28;45962;-76
2022/04/26 10:19:16;;;;;;;;;58.00;46.33;;;;;-147.59;100.00;57188.72;4992133;28;45680;-75
2022/04/26 10:21:41;;;;;;;;;50.00;41.33;;;;;-147.59;100.00;57188.72;4984899;28;45508;-74
2022/04/26 10:24:36;;;;;;;;;47.33;38.33;;;;;-147.59;100.00;57188.72;4988386;28;45384;-74
2022/04/26 10:27:18;;;;;;;;;50.00;40.33;;;;;-147.59;100.00;57188.72;4979574;28;46291;-74
2022/04/26 10:29:44;;;;;;;;;47.33;38.00;;;;;-147.59;100.00;57188.72;4982411;28;45473;-75
2022/04/26 10:32:11;;;;;;;;;42.67;37.33;;;;;-147.59;100.00;57188.72;4992382;28;45652;-75
2022/04/26 10:34:39;;;;;;;;;53.00;43.00;;;;;-147.59;100.00;57188.72;4991626;28;46142;-75
2022/04/26 10:37:07;;;;;;;;;52.00;42.00;;;;;-147.59;100.00;57188.72;4978207;28;45703;-75
2022/04/26 10:39:33;;;;;;;;;48.00;40.00;;;;;-147.59;100.00;57188.72;4987184;28;45410;-75
2022/04/26 10:42:01;;;;;;;;;49.00;40.67;;;;;-147.59;100.00;57188.72;4986299;28;45891;-74
2022/04/26 10:44:32;;;;;;;;;50.67;38.67;;;;;-147.59;100.00;57188.72;4974233;28;45487;-75
2022/04/26 10:47:03;;;;;;;;;49.00;39.33;;;;;-147.59;100.00;57188.72;4990065;28;45599;-74
2022/04/26 10:49:43;;;;;;;;;48.00;38.00;;;;;-147.59;100.00;57188.72;4983758;28;45457;-74
2022/04/26 10:52:10;;;;;;;;;45.00;37.00;;;;;-147.59;100.00;57188.72;4980719;28;45400;-74
2022/04/26 10:55:03;;;;;;;;;47.33;38.33;;;;;-147.59;100.00;57188.72;4988114;28;45424;-75
2022/04/26 10:57:28;;;;;;;;;40.33;35.00;;;;;-147.59;100.00;57188.72;4977739;28;46545;-75
2022/04/26 11:00:09;;;;;;;;;47.50;39.50;;;;;-147.59;100.00;57188.72;4986778;28;45707;-75
2022/04/26 11:02:40;;;;;;;;;39.33;34.00;;;;;-147.59;100.00;57188.72;4989108;28;45555;-75
2022/04/26 11:05:10;;;;;;;;;43.00;36.33;;;;;-147.59;100.00;57188.72;4979440;28;45590;-75
2022/04/26 11:07:47;;;;;;;;;42.00;36.00;;;;;-147.59;100.00;57188.72;4985190;28;46201;-75
2022/04/26 11:10:15;;;;;;;;;41.00;34.00;;;;;-147.59;100.00;57188.72;4984647;28;45441;-75
2022/04/26 11:12:41;;;;;;;;;37.67;32.67;;;;;-147.59;100.00;57188.72;4990235;28;45467;-72
2022/04/26 11:15:20;;;;;;;;;44.67;36.00;;;;;-147.59;100.00;57188.72;4990000;28;45468;-74
2022/04/26 11:17:46;;;;;;;;;43.67;37.33;;;;;-147.59;100.00;57188.72;4989861;28;46053;-74
2022/04/26 11:20:16;;;;;;;;;44.33;37.00;;;;;-147.59;100.00;57188.72;4981218;28;45498;-74
2022/04/26 11:22:55;;;;;;;;;43.67;36.33;;;;;-147.59;100.00;57188.72;4985727;28;45401;-74
2022/04/26 11:28:10;;;;;;;;;46.33;36.67;;;;;-147.59;100.00;57188.72;4984202;28;45508;-74
2022/04/26 11:30:51;;;;;;;;;47.67;38.67;;;;;-147.59;100.00;57188.72;4988289;28;45492;-74
2022/04/26 11:33:24;;;;;;;;;43.33;36.67;;;;;-147.59;100.00;57188.72;4983219;28;45749;-74
2022/04/26 11:35:54;;;;;;;;;48.33;39.33;;;;;-147.59;100.00;57188.72;4979997;28;45601;-74
2022/04/26 11:38:19;;;;;;;;;45.33;37.00;;;;;-147.59;100.00;57188.72;4985109;28;45561;-74
2022/04/26 11:40:54;;;;;;;;;37.67;33.33;;;;;-147.59;100.00;57188.72;4987887;28;45457;-74
2022/04/26 11:43:26;;;;;;;;;47.67;39.33;;;;;-147.59;100.00;57188.72;4979383;28;45623;-74
2022/04/26 11:45:55;;;;;;;;;40.67;33.33;;;;;-147.59;100.00;57188.72;4986963;28;45452;-76
2022/04/26 11:48:33;;;;;;;;;48.33;37.67;;;;;-147.59;100.00;57188.72;4989789;28;45451;-76
2022/04/26 11:50:59;;;;;;;;;47.67;36.67;;;;;-147.59;100.00;57188.72;4962106;28;45408;-76
2022/04/26 11:53:29;;;;;;;;;39.33;35.67;;;;;-147.59;100.00;57188.72;4987275;28;45409;-74
2022/04/26 11:56:01;;;;;;;;;43.00;36.00;;;;;-147.59;100.00;57188.72;4981810;28;45448;-76
2022/04/26 11:58:27;;;;;;;;;38.67;34.33;;;;;-147.59;100.00;57188.72;4985169;28;46109;-74
2022/04/26 12:01:02;;;;;;;;;41.00;36.33;;;;;-147.59;100.00;57188.72;4985139;28;45482;-76
2022/04/26 12:03:32;;;;;;;;;48.67;38.67;;;;;-147.59;100.00;57188.72;4985028;28;45527;-76
2022/04/26 12:06:03;;;;;;;;;49.67;36.67;;;;;-147.59;100.00;57188.72;4984375;28;45516;-76
2022/04/26 12:08:35;;;;;;;;;43.33;35.67;;;;;-147.59;100.00;57188.72;4986424;28;45560;-76
2022/04/26 12:11:22;;;;;;;;;42.67;35.00;;;;;-147.59;100.00;57188.72;4988221;28;45534;-76
2022/04/26 12:14:06;;;;;;;;;47.67;37.67;;;;;-147.59;100.00;57188.72;4983299;28;45582;-76
2022/04/26 12:16:35;;;;;;;;;41.33;35.33;;;;;-147.59;100.00;57188.72;4985557;28;45588;-73
2022/04/26 12:19:02;;;;;;;;;43.33;34.00;;;;;-147.59;100.00;57188.72;4986681;28;45572;-77
2022/04/26 12:21:42;;;;;;;;;37.33;33.00;;;;;-147.59;100.00;57188.72;4985969;28;45547;-76
2022/04/26 12:24:11;;;;;;;;;38.00;34.67;;;;;-147.59;100.00;57188.72;4986044;28;45462;-76
2022/04/26 12:27:00;;;;;;;;;43.67;34.00;;;;;-147.59;100.00;57188.72;4987135;28;46288;-76
2022/04/26 12:29:35;;;;;;;;;41.00;34.67;;;;;-147.59;100.00;57188.72;4967647;28;47024;-76
2022/04/26 12:32:07;;;;;;;;;44.33;37.00;;;;;-147.59;100.00;57188.72;4969857;28;45615;-75
2022/04/26 12:34:32;;;;;;;;;39.33;33.33;;;;;-147.59;100.00;57188.72;4984471;28;45944;-76
2022/04/26 12:37:03;;;;;;;;;39.33;34.00;;;;;-147.59;100.00;57188.72;4989558;28;45511;-79
2022/04/26 12:39:40;;;;;;;;;42.33;33.00;;;;;-147.59;100.00;57188.72;4972261;28;48083;-76
2022/04/26 12:42:07;;;;;;;;;31.33;30.67;;;;;-147.59;100.00;57188.72;4978719;28;45412;-73
2022/04/26 12:44:33;;;;;;;;;34.33;29.67;;;;;-147.59;100.00;57188.72;4991928;28;45433;-73
2022/04/26 12:50:42;;;;;;;;;32.67;31.00;;;;;-147.59;100.00;57188.72;4988494;28;45856;-74
2022/04/26 12:52:42;;;;;;;;;32.33;30.00;;;;;-147.59;100.00;57188.72;4992215;28;45627;-76
2022/04/26 12:55:08;;;;;;;;;36.00;31.67;;;;;-147.59;100.00;57188.72;4993985;28;45968;-74
2022/04/26 12:58:02;;;;;;;;;33.67;30.67;;;;;-147.59;100.00;57188.72;4975582;28;45448;-74
2022/04/26 13:00:28;;;;;;;;;39.00;32.67;;;;;-147.59;100.00;57188.72;4990945;28;46057;-74
2022/04/26 13:02:57;;;;;;;;;32.67;29.67;;;;;-147.59;100.00;57188.72;4998664;28;45576;-74
2022/04/26 13:05:22;;;;;;;;;28.67;24.67;;;;;-147.59;100.00;57188.72;4991756;28;45417;-74
2022/04/26 13:07:48;;;;;;;;;32.00;27.00;;;;;-147.59;100.00;57188.72;4978621;28;45337;-74
2022/04/26 13:10:19;;;;;;;;;29.00;26.33;;;;;-147.59;100.00;57188.72;4988597;28;45540;-74
2022/04/26 13:12:44;;;;;;;;;32.00;27.00;;;;;-147.59;100.00;57188.72;4992785;28;45982;-74
2022/04/26 13:15:11;;;;;;;;;25.33;24.00;;;;;-147.59;100.00;57188.72;4990648;28;45525;-73
2022/04/26 13:17:37;;;;;;;;;24.67;21.67;;;;;-147.59;100.00;57188.72;4969614;28;45756;-74
2022/04/26 13:20:05;;;;;;;;;29.67;28.33;;;;;-147.59;100.00;57188.72;4996617;28;45566;-75
2022/04/26 13:22:32;;;;;;;;;25.33;25.33;;;;;-147.59;100.00;57188.72;4992877;28;45453;-74
2022/04/26 13:24:58;;;;;;;;;29.00;26.00;;;;;-147.59;100.00;57188.72;4983003;28;45465;-75
2022/04/26 13:27:23;;;;;;;;;28.00;25.33;;;;;-147.59;100.00;57188.72;4991162;28;45613;-74
2022/04/26 13:29:50;;;;;;;;;24.67;24.00;;;;;-147.59;100.00;57188.72;4993845;28;45960;-74
2022/04/26 13:32:17;;;;;;;;;29.00;26.00;;;;;-147.59;100.00;57188.72;4991226;28;46028;-74
2022/04/26 13:34:43;;;;;;;;;21.67;20.67;;;;;-147.59;100.00;57188.72;5000297;28;46054;-74
2022/04/26 13:37:09;;;;;;;;;23.67;22.67;;;;;-147.59;100.00;57188.72;4968804;28;45610;-74
2022/04/26 13:39:35;;;;;;;;;23.33;22.00;;;;;-147.59;100.00;57188.72;4990791;28;46178;-74
2022/04/26 13:42:01;;;;;;;;;24.00;23.00;;;;;-147.59;100.00;57188.72;4991910;28;45590;-74
2022/04/26 13:44:26;;;;;;;;;26.67;25.33;;;;;-147.59;100.00;57188.72;4987188;28;45511;-75
2022/04/26 13:46:53;;;;;;;;;26.33;24.00;;;;;-147.59;100.00;57188.72;4984427;28;45437;-74
2022/04/26 13:49:18;;;;;;;;;26.00;25.00;;;;;-147.59;100.00;57188.72;4996590;28;46162;-74
2022/04/26 13:51:44;;;;;;;;;21.67;21.67;;;;;-147.59;100.00;57188.72;4989000;28;45513;-74
2022/04/26 13:54:09;;;;;;;;;22.67;22.33;;;;;-147.59;100.00;57188.72;4984940;28;45851;-74
2022/04/26 13:56:34;;;;;;;;;23.00;22.00;;;;;-147.59;100.00;57188.72;4966070;28;45599;-74
2022/04/26 13:59:00;;;;;;;;;19.50;18.50;;;;;-147.59;100.00;57188.72;4973699;28;47468;-73
2022/04/26 14:01:25;;;;;;;;;20.33;19.33;;;;;-147.59;100.00;57188.72;4991403;28;46753;-74
2022/04/26 14:03:50;;;;;;;;;19.00;19.00;;;;;-147.59;100.00;57188.72;4970298;28;45396;-74
2022/04/26 14:06:21;;;;;;;;;25.33;21.67;;;;;-147.59;100.00;57188.72;4980346;28;45591;-74
2022/04/26 14:08:50;;;;;;;;;18.00;17.00;;;;;-147.59;100.00;57188.72;4985247;28;45600;-74
2022/04/26 14:11:16;;;;;;;;;17.33;15.00;;;;;-147.59;100.00;57188.72;4968887;28;45592;-74
2022/04/26 14:21:54;;;;;;;;;22.67;22.00;;;;;-147.59;100.00;57188.72;4989308;28;45547;-74
2022/04/26 14:24:20;;;;;;;;;21.33;20.67;;;;;-147.59;100.00;57188.72;4970202;28;46067;-74
2022/04/26 14:26:45;;;;;;;;;24.00;21.33;;;;;-147.59;100.00;57188.72;4992250;28;45529;-74
2022/04/26 14:29:10;;;;;;;;;20.67;19.67;;;;;-147.59;100.00;57188.72;4983594;28;46150;-73
2022/04/26 14:31:36;;;;;;;;;23.33;22.00;;;;;-147.59;100.00;57188.72;4966546;28;45498;-74
2022/04/26 14:34:02;;;;;;;;;21.67;19.67;;;;;-147.59;100.00;57188.72;4984229;28;45634;-74
2022/04/26 14:36:27;;;;;;;;;18.00;18.00;;;;;-147.59;100.00;57188.72;4985245;28;46573;-74
2022/04/26 14:38:53;;;;;;;;;21.67;20.67;;;;;-147.59;100.00;57188.72;4984907;28;45807;-74
2022/04/26 14:41:18;;;;;;;;;19.00;19.00;;;;;-147.59;100.00;57188.72;4967973;28;45996;-74
2022/04/26 14:43:44;;;;;;;;;19.00;17.33;;;;;-147.59;100.00;57188.72;4972464;28;46537;-74
2022/04/26 14:46:09;;;;;;;;;16.33;15.33;;;;;-147.59;100.00;57188.72;4985562;28;45912;-74
2022/04/26 14:48:36;;;;;;;;;19.33;18.00;;;;;-147.59;100.00;57188.72;4985213;28;45389;-74
2022/04/26 14:51:01;;;;;;;;;21.67;19.67;;;;;-147.59;100.00;57188.72;4985712;28;45709;-74
2022/04/26 14:53:27;;;;;;;;;20.00;19.00;;;;;-147.59;100.00;57188.72;4984745;28;45606;-73
2022/04/26 14:55:52;;;;;;;;;20.67;20.00;;;;;-147.59;100.00;57188.72;4985374;28;45880;-73
2022/04/26 14:58:19;;;;;;;;;21.00;19.00;;;;;-147.59;100.00;57188.72;4985266;28;45647;-74